createdAt,value
2022-09-17T00:01:15.719Z,32.20
2022-09-17T00:03:42.660Z,31.40
2022-09-17T00:06:12.320Z,31.30
2022-09-17T00:08:41.222Z,31.30
2022-09-17T00:11:09.487Z,31.50
2022-09-17T00:13:36.510Z,31.50
2022-09-17T00:16:03.645Z,31.50
2022-09-17T00:18:30.647Z,31.90
2022-09-17T00:20:57.592Z,32.60
2022-09-17T00:23:24.916Z,31.60
2022-09-17T00:25:51.846Z,30.80
2022-09-17T00:28:18.899Z,31.60
2022-09-17T00:30:46.821Z,31.40
2022-09-17T00:33:16.284Z,31.50
2022-09-17T00:35:43.669Z,30.60
2022-09-17T00:38:11.242Z,30.60
2022-09-17T00:40:39.214Z,31.40
2022-09-17T00:43:12.418Z,30.90
2022-09-17T00:45:40.853Z,30.70
2022-09-17T00:48:10.833Z,31.10
2022-09-17T00:50:42.284Z,31.40
2022-09-17T00:53:13.984Z,31.60
2022-09-17T00:55:48.819Z,30.80
2022-09-17T00:58:19.084Z,30.70
2022-09-17T01:00:47.425Z,31.40
2022-09-17T01:03:14.982Z,32.00
2022-09-17T01:05:46.395Z,31.80
2022-09-17T01:08:19.424Z,31.90
2022-09-17T01:11:05.821Z,31.30
2022-09-17T01:13:53.084Z,31.10
2022-09-17T01:16:37.871Z,31.60
2022-09-17T01:19:44.399Z,31.20
2022-09-17T01:22:26.298Z,31.30
2022-09-17T01:25:30.165Z,30.70
2022-09-17T01:28:06.288Z,30.50
2022-09-17T01:31:02.257Z,31.00
2022-09-17T01:33:29.166Z,30.80
2022-09-17T01:36:24.699Z,31.10
2022-09-17T01:39:25.130Z,31.90
2022-09-17T01:42:13.868Z,31.80
2022-09-17T01:44:47.818Z,32.10
2022-09-17T01:47:24.312Z,30.60
2022-09-17T01:49:57.630Z,29.80
2022-09-17T01:52:26.942Z,28.70
2022-09-17T01:54:59.821Z,29.30
2022-09-17T01:57:42.804Z,30.80
2022-09-17T02:00:13.814Z,32.10
2022-09-17T02:02:52.158Z,31.80
2022-09-17T02:05:24.435Z,31.00
2022-09-17T02:07:57.509Z,30.70
2022-09-17T02:10:31.867Z,31.10
2022-09-17T02:13:19.656Z,31.80
2022-09-17T02:15:53.837Z,32.10
2022-09-17T02:18:38.446Z,31.30
2022-09-17T02:21:30.405Z,30.60
2022-09-17T02:24:04.012Z,30.70
2022-09-17T02:26:33.254Z,30.10
2022-09-17T02:29:07.950Z,30.10
2022-09-17T02:31:35.694Z,30.00
2022-09-17T02:34:05.864Z,29.20
2022-09-17T02:36:34.634Z,29.90
2022-09-17T02:39:04.098Z,30.10
2022-09-17T02:42:08.197Z,30.80
2022-09-17T02:44:55.078Z,31.10
2022-09-17T02:47:33.626Z,31.70
2022-09-17T02:50:24.906Z,31.90
2022-09-17T02:53:12.135Z,32.10
2022-09-17T02:56:01.030Z,31.60
2022-09-17T02:58:49.099Z,31.10
2022-09-17T03:01:25.730Z,30.80
2022-09-17T03:03:56.424Z,30.80
2022-09-17T03:06:23.808Z,29.40
2022-09-17T03:08:52.077Z,29.30
2022-09-17T03:11:19.017Z,29.50
2022-09-17T03:13:46.054Z,29.20
2022-09-17T03:16:13.088Z,29.00
2022-09-17T03:18:40.058Z,29.20
2022-09-17T03:21:07.048Z,29.40
2022-09-17T03:23:34.122Z,30.10
2022-09-17T03:26:01.282Z,30.40
2022-09-17T03:28:28.339Z,29.80
2022-09-17T03:30:55.525Z,30.90
2022-09-17T03:33:22.661Z,31.60
2022-09-17T03:35:49.894Z,32.40
2022-09-17T03:38:17.400Z,33.00
2022-09-17T03:40:44.481Z,32.90
2022-09-17T03:43:11.494Z,33.70
2022-09-17T03:45:38.422Z,33.80
2022-09-17T03:48:05.398Z,33.60
2022-09-17T03:50:32.724Z,33.80
2022-09-17T03:52:59.711Z,33.70
2022-09-17T03:55:26.663Z,33.60
2022-09-17T03:57:53.649Z,34.30
2022-09-17T04:00:20.568Z,34.40
2022-09-17T04:02:47.854Z,33.80
2022-09-17T04:05:14.971Z,32.90
2022-09-17T04:07:41.924Z,32.50
2022-09-17T04:10:09.155Z,32.80
2022-09-17T04:12:36.434Z,33.20
2022-09-17T04:15:04.510Z,33.10
2022-09-17T04:17:31.806Z,33.40
2022-09-17T04:19:59.339Z,33.10
2022-09-17T04:22:29.187Z,33.60
2022-09-17T04:24:56.082Z,33.60
2022-09-17T04:27:23.193Z,32.70
2022-09-17T04:29:50.371Z,32.90
2022-09-17T04:32:17.471Z,32.80
2022-09-17T04:34:44.466Z,33.10
2022-09-17T04:37:11.458Z,33.80
2022-09-17T04:39:38.377Z,33.30
2022-09-17T04:42:05.454Z,32.80
2022-09-17T04:44:32.534Z,32.80
2022-09-17T04:46:59.563Z,32.90
2022-09-17T04:49:30.125Z,33.80
2022-09-17T04:51:57.050Z,34.10
2022-09-17T04:54:24.373Z,34.50
2022-09-17T04:56:51.872Z,34.30
2022-09-17T04:59:18.832Z,34.50
2022-09-17T05:01:46.026Z,35.00
2022-09-17T05:04:13.604Z,34.70
2022-09-17T05:06:40.705Z,34.60
2022-09-17T05:09:07.817Z,33.90
2022-09-17T05:11:34.869Z,33.50
2022-09-17T05:14:01.865Z,33.80
2022-09-17T05:16:28.814Z,34.40
2022-09-17T05:18:55.984Z,34.50
2022-09-17T05:21:22.980Z,34.60
2022-09-17T05:23:50.286Z,34.70
2022-09-17T05:26:17.233Z,34.60
2022-09-17T05:28:44.286Z,33.90
2022-09-17T05:31:11.258Z,33.80
2022-09-17T05:33:38.192Z,34.00
2022-09-17T05:36:05.337Z,34.10
2022-09-17T05:38:32.299Z,34.20
2022-09-17T05:40:59.259Z,34.10
2022-09-17T05:43:26.266Z,34.10
2022-09-17T05:45:54.423Z,33.60
2022-09-17T05:48:21.415Z,33.60
2022-09-17T05:50:48.501Z,33.90
2022-09-17T05:53:15.434Z,34.10
2022-09-17T05:55:42.401Z,34.40
2022-09-17T05:58:17.265Z,34.50
2022-09-17T06:00:48.105Z,34.40
2022-09-17T06:03:22.947Z,34.40
2022-09-17T06:05:58.684Z,34.30
2022-09-17T06:08:26.841Z,34.20
2022-09-17T06:10:55.414Z,34.50
2022-09-17T06:13:23.931Z,34.90
2022-09-17T06:15:54.373Z,35.40
2022-09-17T06:18:21.688Z,35.50
2022-09-17T06:21:01.080Z,36.10
2022-09-17T06:23:35.289Z,36.50
2022-09-17T06:26:03.393Z,36.70
2022-09-17T06:28:41.523Z,37.20
2022-09-17T06:31:10.255Z,37.30
2022-09-17T06:33:42.395Z,37.40
2022-09-17T06:36:13.922Z,37.50
2022-09-17T06:38:42.558Z,37.70
2022-09-17T06:41:09.602Z,37.10
2022-09-17T06:43:38.897Z,37.00
2022-09-17T06:46:06.553Z,36.70
2022-09-17T06:48:35.288Z,37.00
2022-09-17T06:51:04.278Z,36.90
2022-09-17T06:53:31.495Z,36.50
2022-09-17T06:56:05.276Z,36.60
2022-09-17T06:58:34.307Z,35.80
2022-09-17T07:01:02.450Z,34.90
2022-09-17T07:03:31.112Z,34.80
2022-09-17T07:05:59.075Z,34.80
2022-09-17T07:08:26.598Z,34.70
2022-09-17T07:10:57.327Z,34.30
2022-09-17T07:13:26.165Z,34.00
2022-09-17T07:15:58.606Z,32.90
2022-09-17T07:18:26.786Z,32.20
2022-09-17T07:21:01.967Z,32.80
2022-09-17T07:23:31.473Z,33.90
2022-09-17T07:26:00.527Z,33.90
2022-09-17T07:28:29.002Z,33.40
2022-09-17T07:30:56.737Z,34.10
2022-09-17T07:33:26.239Z,34.90
2022-09-17T07:36:01.315Z,35.20
2022-09-17T07:38:32.357Z,34.90
2022-09-17T07:41:06.886Z,34.70
2022-09-17T07:43:36.550Z,34.90
2022-09-17T07:46:06.097Z,35.60
2022-09-17T07:48:33.940Z,36.10
2022-09-17T07:51:00.895Z,35.90
2022-09-17T07:53:28.425Z,36.00
2022-09-17T07:56:00.360Z,36.00
2022-09-17T07:58:36.730Z,35.30
2022-09-17T08:01:08.939Z,34.90
2022-09-17T08:03:36.765Z,34.00
2022-09-17T08:06:06.889Z,34.90
2022-09-17T08:08:36.001Z,35.50
2022-09-17T08:11:09.360Z,35.00
2022-09-17T08:13:36.744Z,35.30
2022-09-17T08:16:06.889Z,36.00
2022-09-17T08:18:34.841Z,36.10
2022-09-17T08:21:04.274Z,36.30
2022-09-17T08:23:34.167Z,35.70
2022-09-17T08:26:02.087Z,35.50
2022-09-17T08:28:31.272Z,35.40
2022-09-17T08:31:04.276Z,35.50
2022-09-17T08:33:33.385Z,35.30
2022-09-17T08:36:00.768Z,34.60
2022-09-17T08:38:39.878Z,35.00
2022-09-17T08:41:10.055Z,35.00
2022-09-17T08:43:48.353Z,35.30
2022-09-17T08:46:15.464Z,35.00
2022-09-17T08:48:56.770Z,35.00
2022-09-17T08:51:54.422Z,35.00
2022-09-17T08:54:34.176Z,35.40
2022-09-17T08:57:33.573Z,35.20
2022-09-17T09:00:14.549Z,35.90
2022-09-17T09:03:13.757Z,36.80
2022-09-17T09:05:49.661Z,37.50
2022-09-17T09:08:47.785Z,36.20
2022-09-17T09:47:55.653Z,38.20
2022-09-17T09:51:04.510Z,40.10
2022-09-17T09:53:44.717Z,40.90
2022-09-17T09:56:23.320Z,41.70
2022-09-17T09:58:50.586Z,42.10
2022-09-17T10:01:23.102Z,41.10
2022-09-17T10:03:52.976Z,40.70
2022-09-17T10:06:20.672Z,39.30
2022-09-17T10:08:51.095Z,39.30
2022-09-17T10:11:23.818Z,38.90
2022-09-17T10:13:50.751Z,39.00
2022-09-17T10:16:18.186Z,38.90
2022-09-17T10:18:46.786Z,38.80
2022-09-17T10:21:31.629Z,38.80
2022-09-17T10:24:00.047Z,37.50
2022-09-17T10:26:32.684Z,37.00
2022-09-17T10:29:03.533Z,37.20
2022-09-17T10:31:54.085Z,37.30
2022-09-17T10:34:35.263Z,36.70
2022-09-17T10:37:02.082Z,35.80
2022-09-17T10:39:34.809Z,36.40
2022-09-17T10:42:13.564Z,36.50
2022-09-17T10:44:58.333Z,36.70
2022-09-17T10:47:41.249Z,36.80
2022-09-17T10:50:32.998Z,36.60
2022-09-17T10:53:05.848Z,36.40
2022-09-17T10:55:41.625Z,36.00
2022-09-17T10:58:08.563Z,35.90
2022-09-17T11:00:50.861Z,36.20
2022-09-17T11:03:48.484Z,36.00
2022-09-17T11:06:53.779Z,35.80
2022-09-17T11:09:34.966Z,35.80
2022-09-17T11:12:20.172Z,35.30
2022-09-17T11:15:01.839Z,36.10
2022-09-17T11:17:40.845Z,37.00
2022-09-17T11:20:45.290Z,36.50
2022-09-17T11:23:30.227Z,35.80
2022-09-17T11:26:19.271Z,35.80
2022-09-17T11:29:07.458Z,36.80
2022-09-17T11:31:52.927Z,36.90
2022-09-17T11:34:25.678Z,37.00
2022-09-17T11:37:22.553Z,36.90
2022-09-17T11:40:01.508Z,37.70
2022-09-17T11:42:36.646Z,37.20
2022-09-17T11:45:19.468Z,36.60
2022-09-17T11:48:05.788Z,36.60
2022-09-17T11:51:22.222Z,36.20
2022-09-17T11:53:57.177Z,35.60
2022-09-17T11:56:31.320Z,35.10
2022-09-17T11:59:24.473Z,35.40
2022-09-17T12:01:53.419Z,35.90
2022-09-17T12:04:34.432Z,36.20
2022-09-17T12:07:41.548Z,37.20
2022-09-17T12:10:41.605Z,37.70
2022-09-17T12:13:43.346Z,37.50
2022-09-17T12:16:26.855Z,37.50
2022-09-17T12:19:05.507Z,37.50
2022-09-17T12:21:41.769Z,37.00
2022-09-17T12:24:23.604Z,36.80
2022-09-17T12:27:07.814Z,37.80
2022-09-17T12:30:13.446Z,37.50
2022-09-17T12:32:57.066Z,38.40
2022-09-17T12:36:03.140Z,38.10
2022-09-17T12:38:44.683Z,37.20
2022-09-17T12:41:21.040Z,37.40
2022-09-17T12:44:06.824Z,37.00
2022-09-17T12:46:45.358Z,36.60
2022-09-17T12:49:40.037Z,37.00
2022-09-17T12:52:42.561Z,36.50
2022-09-17T12:55:22.539Z,36.60
2022-09-17T12:57:58.458Z,36.10
2022-09-17T13:00:25.556Z,36.90
2022-09-17T13:03:19.007Z,37.00
2022-09-17T13:05:59.356Z,37.20
2022-09-17T13:08:45.095Z,36.80
2022-09-17T13:11:59.235Z,37.10
2022-09-17T13:14:43.870Z,37.80
2022-09-17T13:21:01.643Z,38.80
2022-09-17T13:23:37.823Z,39.70
2022-09-17T13:26:06.345Z,40.30
2022-09-17T13:31:35.504Z,40.10
2022-09-17T13:34:03.521Z,40.60
2022-09-17T13:36:34.693Z,40.70
2022-09-17T13:39:03.429Z,40.40
2022-09-17T13:41:32.865Z,40.10
2022-09-17T13:44:01.263Z,39.50
2022-09-17T13:46:29.310Z,39.00
2022-09-17T13:49:00.413Z,38.90
2022-09-17T13:51:30.225Z,38.10
2022-09-17T13:53:59.469Z,37.00
2022-09-17T13:56:50.907Z,36.40
2022-09-17T13:59:25.569Z,35.70
2022-09-17T14:02:30.050Z,36.00
2022-09-17T14:05:34.310Z,35.60
2022-09-17T14:08:29.334Z,35.10
2022-09-17T14:10:58.736Z,34.30
2022-09-17T14:13:44.519Z,34.50
2022-09-17T14:16:34.098Z,35.30
2022-09-17T14:19:16.671Z,35.70
2022-09-17T14:22:01.647Z,35.90
2022-09-17T14:24:42.613Z,35.90
2022-09-17T14:27:28.093Z,36.30
2022-09-17T14:30:04.519Z,36.50
2022-09-17T14:32:40.376Z,36.70
2022-09-17T14:35:17.956Z,35.10
2022-09-17T14:37:52.673Z,35.50
2022-09-17T14:40:22.608Z,35.70
2022-09-17T14:42:56.755Z,36.70
2022-09-17T14:45:31.914Z,37.30
2022-09-17T14:48:26.985Z,37.30
2022-09-17T14:51:19.268Z,37.00
2022-09-17T14:53:48.195Z,36.50
2022-09-17T14:56:21.179Z,36.70
2022-09-17T14:58:54.903Z,35.80
2022-09-17T15:01:28.919Z,34.80
2022-09-17T15:04:28.043Z,34.80
2022-09-17T15:07:12.432Z,34.50
2022-09-17T15:09:39.527Z,34.50
2022-09-17T15:12:07.797Z,35.00
2022-09-17T15:14:40.250Z,35.30
2022-09-17T15:17:09.117Z,35.10
2022-09-17T15:19:48.194Z,35.20
2022-09-17T15:22:29.389Z,35.30
2022-09-17T15:24:58.784Z,34.90
2022-09-17T15:27:36.889Z,34.30
2022-09-17T15:38:29.489Z,31.70
2022-09-17T15:41:31.081Z,32.00
2022-09-17T15:44:36.328Z,31.30
2022-09-17T15:47:40.601Z,29.60
2022-09-17T15:50:19.977Z,30.00
2022-09-17T15:52:47.426Z,31.60
2022-09-17T15:55:34.740Z,30.90
2022-09-17T15:58:05.317Z,31.60
2022-09-17T16:00:32.967Z,31.90
2022-09-17T16:03:39.835Z,32.00
2022-09-17T16:06:18.905Z,32.50
2022-09-17T16:08:56.772Z,31.60
2022-09-17T16:11:26.440Z,32.10
2022-09-17T16:13:55.125Z,32.10
2022-09-17T16:16:25.645Z,32.50
2022-09-17T16:18:53.198Z,32.30
2022-09-17T16:21:20.643Z,31.60
2022-09-17T16:23:47.714Z,31.70
2022-09-17T16:26:21.252Z,32.00
2022-09-17T16:28:50.941Z,31.80
2022-09-17T16:31:18.180Z,32.50
2022-09-17T16:33:45.138Z,33.20
2022-09-17T16:36:15.480Z,33.70
2022-09-17T16:38:42.568Z,33.80
2022-09-17T16:41:09.917Z,33.70
2022-09-17T16:43:40.324Z,34.00
2022-09-17T16:46:10.676Z,34.00
2022-09-17T16:48:38.339Z,34.10
2022-09-17T16:51:12.769Z,33.70
2022-09-17T16:53:40.099Z,34.00
2022-09-17T16:56:13.104Z,34.50
2022-09-17T16:58:40.376Z,34.60
2022-09-17T17:01:15.136Z,34.70
2022-09-17T17:03:43.154Z,35.10
2022-09-17T17:06:20.852Z,35.60
2022-09-17T17:08:48.512Z,36.00
2022-09-17T17:11:15.506Z,36.00
2022-09-17T17:13:43.287Z,35.90
2022-09-17T17:16:12.265Z,35.30
2022-09-17T17:18:41.906Z,35.60
2022-09-17T17:21:10.824Z,35.60
2022-09-17T17:23:38.056Z,35.40
2022-09-17T17:26:05.329Z,35.60
2022-09-17T17:28:33.691Z,35.80
2022-09-17T17:31:00.894Z,35.80
2022-09-17T17:33:28.083Z,35.80
2022-09-17T17:36:06.628Z,35.80
2022-09-17T17:38:37.002Z,35.50
2022-09-17T17:41:11.595Z,35.30
2022-09-17T17:43:39.100Z,35.40
2022-09-17T17:46:12.221Z,35.60
2022-09-17T17:48:39.634Z,35.70
2022-09-17T17:51:09.322Z,35.40
2022-09-17T17:53:36.888Z,35.40
2022-09-17T17:56:07.614Z,35.10
2022-09-17T17:58:35.615Z,35.10
2022-09-17T18:01:14.455Z,35.50
2022-09-17T18:03:41.438Z,35.10
2022-09-17T18:06:09.044Z,35.00
2022-09-17T18:08:38.094Z,34.60
2022-09-17T18:11:08.310Z,33.90
2022-09-17T18:13:37.022Z,34.30
2022-09-17T18:16:05.288Z,34.40
2022-09-17T18:18:43.541Z,34.40
2022-09-17T18:21:16.579Z,33.90
2022-09-17T18:23:44.527Z,34.10
2022-09-17T18:26:14.694Z,34.30
2022-09-17T18:28:42.614Z,34.60
2022-09-17T18:31:31.592Z,34.70
2022-09-17T18:34:00.846Z,34.70
2022-09-17T18:36:30.638Z,34.50
2022-09-17T18:39:32.931Z,34.80
2022-09-17T18:41:50.119Z,35.10
2022-09-17T18:44:19.175Z,35.30
2022-09-17T18:46:48.081Z,35.30
2022-09-17T18:49:15.813Z,35.30
2022-09-17T18:51:42.776Z,35.50
2022-09-17T18:54:10.982Z,35.80
2022-09-17T18:56:37.930Z,36.00
2022-09-17T18:59:08.340Z,36.00
2022-09-17T19:01:36.029Z,36.20
2022-09-17T19:04:03.810Z,36.00
2022-09-17T19:06:32.469Z,35.40
2022-09-17T19:09:01.372Z,35.70
2022-09-17T19:11:30.355Z,35.30
2022-09-17T19:13:59.928Z,35.40
2022-09-17T19:16:27.114Z,35.20
2022-09-17T19:18:54.226Z,35.40
2022-09-17T19:21:21.957Z,35.60
2022-09-17T19:23:54.818Z,34.90
2022-09-17T19:26:24.479Z,35.10
2022-09-17T19:28:57.910Z,35.20
2022-09-17T19:31:25.827Z,34.90
2022-09-17T19:33:53.308Z,35.10
2022-09-17T19:36:25.913Z,34.30
2022-09-17T19:38:54.436Z,34.70
2022-09-17T19:41:23.441Z,34.90
2022-09-17T19:43:54.630Z,34.10
2022-09-17T19:46:24.322Z,34.30
2022-09-17T19:48:53.600Z,34.60
2022-09-17T19:51:22.473Z,34.10
2022-09-17T19:53:49.656Z,33.20
2022-09-17T19:56:22.139Z,33.60
2022-09-17T19:58:49.593Z,33.80
2022-09-17T20:01:16.960Z,33.80
2022-09-17T20:03:45.535Z,33.60
2022-09-17T20:06:14.823Z,33.90
2022-09-17T20:08:49.630Z,34.00
2022-09-17T20:11:17.828Z,34.30
2022-09-17T20:13:44.824Z,34.20
2022-09-17T20:16:16.063Z,34.30
2022-09-17T20:18:44.184Z,34.20
2022-09-17T20:21:14.207Z,34.20
2022-09-17T20:23:41.461Z,34.20
2022-09-17T20:26:09.058Z,34.20
2022-09-17T20:28:36.144Z,33.80
2022-09-17T20:31:05.608Z,33.80
2022-09-17T20:33:33.112Z,33.20
2022-09-17T20:36:05.758Z,32.70
2022-09-17T20:39:10.172Z,33.10
2022-09-17T20:41:21.050Z,33.70
2022-09-17T20:43:53.398Z,34.20
2022-09-17T20:46:27.574Z,33.60
2022-09-17T20:48:57.651Z,33.90
2022-09-17T20:51:27.596Z,34.20
2022-09-17T20:53:57.520Z,34.00
2022-09-17T20:56:30.482Z,34.00
2022-09-17T20:59:13.247Z,33.80
2022-09-17T21:01:50.334Z,33.50
2022-09-17T21:04:21.066Z,33.30
2022-09-17T21:06:52.929Z,32.70
2022-09-17T21:09:20.737Z,32.40
2022-09-17T21:11:48.999Z,32.60
2022-09-17T21:14:21.139Z,33.40
2022-09-17T21:16:49.154Z,33.50
2022-09-17T21:19:17.765Z,33.50
2022-09-17T21:21:44.954Z,33.10
2022-09-17T21:24:12.479Z,33.50
2022-09-17T21:26:39.468Z,33.50
2022-09-17T21:29:08.972Z,33.80
2022-09-17T21:31:37.374Z,33.20
2022-09-17T21:34:06.927Z,33.30
2022-09-17T21:36:36.600Z,33.60
2022-09-17T21:39:11.242Z,33.20
2022-09-17T21:41:42.309Z,33.20
2022-09-17T21:44:10.694Z,33.00
2022-09-17T21:46:37.996Z,33.50
2022-09-17T21:49:06.245Z,32.90
2022-09-17T21:51:41.767Z,32.80
2022-09-17T21:54:14.422Z,32.80
2022-09-17T21:56:41.767Z,33.00
2022-09-17T21:59:11.234Z,32.90
2022-09-17T22:01:41.269Z,32.40
2022-09-17T22:04:14.990Z,32.20
2022-09-17T22:06:46.126Z,32.70
2022-09-17T22:09:17.776Z,33.30
2022-09-17T22:11:45.360Z,32.90
2022-09-17T22:14:14.771Z,32.80
2022-09-17T22:16:44.028Z,33.70
2022-09-17T22:19:13.142Z,34.40
2022-09-17T22:21:42.984Z,34.20
2022-09-17T22:24:10.947Z,34.10
2022-09-17T22:26:40.890Z,34.50
2022-09-17T22:29:19.028Z,34.80
2022-09-17T22:31:46.758Z,34.50
2022-09-17T22:34:17.074Z,34.20
2022-09-17T22:36:44.469Z,33.50
2022-09-17T22:39:12.612Z,33.20
2022-09-17T22:41:45.268Z,32.80
2022-09-17T22:44:16.030Z,33.20
2022-09-17T22:46:44.017Z,33.60
2022-09-17T22:49:11.993Z,33.60
2022-09-17T22:51:40.011Z,33.10
2022-09-17T22:54:12.120Z,32.90
2022-09-17T22:56:41.404Z,33.20
2022-09-17T22:59:08.333Z,33.30
2022-09-17T23:01:39.043Z,33.40
2022-09-17T23:04:06.832Z,33.70
2022-09-17T23:06:38.140Z,34.00
2022-09-17T23:09:06.177Z,33.50
2022-09-17T23:11:36.749Z,34.00
2022-09-17T23:14:09.649Z,34.80
2022-09-17T23:16:45.644Z,35.20
2022-09-17T23:19:13.923Z,34.70
2022-09-17T23:21:41.335Z,33.90
2022-09-17T23:24:09.858Z,33.20
2022-09-17T23:26:36.922Z,32.50
2022-09-17T23:29:05.683Z,32.90
2022-09-17T23:31:35.385Z,32.80
2022-09-17T23:34:03.418Z,32.70
2022-09-17T23:36:33.583Z,32.80
2022-09-17T23:39:02.646Z,32.60
2022-09-17T23:41:32.903Z,32.90
2022-09-17T23:44:02.060Z,33.30
2022-09-17T23:46:33.099Z,34.10
2022-09-17T23:49:02.654Z,33.80
2022-09-17T23:51:31.160Z,33.60
2022-09-17T23:53:58.452Z,33.70
2022-09-17T23:56:27.106Z,33.70
2022-09-17T23:58:55.319Z,33.50
